KPNS/PNS METAR and TAF weather

Enter ICAO airport designator
Station Type Date Time Source
KPNS METAR 2021/03/09 09:53 UTC NOAA

KPNS 090953Z AUTO 02007KT 10SM CLR 09/07 A3046 RMK AO2 SLP316 T00890067


Station Type Date Time Source
KPNS Decoded METAR 2021/03/09 09:53 UTC NOAA

PENSACOLA REGIONAL AIRPORT, FL, United States (KPNS) 30-29N 087-11W 38M
Mar 09, 2021 - 04:53 AM EST / 2021.03.09 0953 UTC
Wind: from the NNE (020 degrees) at 8 MPH (7 KT):0
Visibility: 10 mile(s):0
Sky conditions: clear
Temperature: 48.0 F (8.9 C)
Dew Point: 44.1 F (6.7 C)
Relative Humidity: 86%
Pressure (altimeter): 30.46 in. Hg (1031 hPa)
ob: KPNS 090953Z AUTO 02007KT 10SM CLR 09/07 A3046 RMK AO2 SLP316 T00890067
cycle: 10

Station Type Date Time Source
KPNS TAF 2021/03/09 06:22 UTC NOAA

TAF KPNS 090520Z 0906/1006 00000KT P6SM SKC
FM091300 09006KT P6SM SKC
FM091800 14008KT P6SM SKC
FM100300 13003KT P6SM SKC

Example: see airport list